sensor_id;sensor_type;location;lat;lon;timestamp;P1;durP1;ratioP1;P2;durP2;ratioP2
22916;SDS011;11624;53.250;7.456;2023-11-18T00:00:30;34.03;;;15.20;;
22916;SDS011;11624;53.250;7.456;2023-11-18T00:02:59;40.17;;;16.63;;
22916;SDS011;11624;53.250;7.456;2023-11-18T00:05:28;30.33;;;15.07;;
22916;SDS011;11624;53.250;7.456;2023-11-18T00:07:57;30.00;;;14.93;;
22916;SDS011;11624;53.250;7.456;2023-11-18T00:10:26;29.50;;;14.80;;
22916;SDS011;11624;53.250;7.456;2023-11-18T00:12:56;35.30;;;15.80;;
22916;SDS011;11624;53.250;7.456;2023-11-18T00:15:24;38.07;;;14.87;;
22916;SDS011;11624;53.250;7.456;2023-11-18T00:17:53;33.83;;;15.30;;
22916;SDS011;11624;53.250;7.456;2023-11-18T00:20:21;28.30;;;14.13;;
22916;SDS011;11624;53.250;7.456;2023-11-18T00:22:50;46.57;;;15.33;;
22916;SDS011;11624;53.250;7.456;2023-11-18T00:25:21;29.73;;;14.60;;
22916;SDS011;11624;53.250;7.456;2023-11-18T00:27:50;30.60;;;14.27;;
22916;SDS011;11624;53.250;7.456;2023-11-18T00:30:18;36.70;;;14.63;;
22916;SDS011;11624;53.250;7.456;2023-11-18T00:32:47;30.50;;;14.60;;
22916;SDS011;11624;53.250;7.456;2023-11-18T00:35:16;36.07;;;13.87;;
22916;SDS011;11624;53.250;7.456;2023-11-18T00:37:44;34.53;;;14.77;;
22916;SDS011;11624;53.250;7.456;2023-11-18T00:40:13;28.83;;;14.93;;
22916;SDS011;11624;53.250;7.456;2023-11-18T00:42:46;31.80;;;13.77;;
22916;SDS011;11624;53.250;7.456;2023-11-18T00:45:14;32.83;;;14.53;;
22916;SDS011;11624;53.250;7.456;2023-11-18T00:47:43;26.63;;;13.80;;
22916;SDS011;11624;53.250;7.456;2023-11-18T00:50:11;29.80;;;15.27;;
22916;SDS011;11624;53.250;7.456;2023-11-18T00:52:40;32.13;;;13.87;;
22916;SDS011;11624;53.250;7.456;2023-11-18T00:55:09;28.70;;;14.20;;
22916;SDS011;11624;53.250;7.456;2023-11-18T00:57:38;30.43;;;15.10;;
22916;SDS011;11624;53.250;7.456;2023-11-18T01:00:11;29.53;;;14.63;;
22916;SDS011;11624;53.250;7.456;2023-11-18T01:02:43;26.57;;;13.30;;
22916;SDS011;11624;53.250;7.456;2023-11-18T01:05:13;27.17;;;14.03;;
22916;SDS011;11624;53.250;7.456;2023-11-18T01:07:41;39.07;;;14.57;;
22916;SDS011;11624;53.250;7.456;2023-11-18T01:10:11;32.97;;;14.70;;
22916;SDS011;11624;53.250;7.456;2023-11-18T01:12:40;41.73;;;16.20;;
22916;SDS011;11624;53.250;7.456;2023-11-18T01:15:13;56.00;;;17.10;;
22916;SDS011;11624;53.250;7.456;2023-11-18T01:17:41;68.30;;;17.57;;
22916;SDS011;11624;53.250;7.456;2023-11-18T01:20:11;47.50;;;15.37;;
22916;SDS011;11624;53.250;7.456;2023-11-18T01:22:40;80.40;;;14.80;;
22916;SDS011;11624;53.250;7.456;2023-11-18T01:25:12;40.40;;;14.80;;
22916;SDS011;11624;53.250;7.456;2023-11-18T01:27:40;90.00;;;16.50;;
22916;SDS011;11624;53.250;7.456;2023-11-18T01:30:09;75.27;;;18.37;;
22916;SDS011;11624;53.250;7.456;2023-11-18T01:32:40;130.07;;;18.33;;
22916;SDS011;11624;53.250;7.456;2023-11-18T01:35:10;122.70;;;18.77;;
22916;SDS011;11624;53.250;7.456;2023-11-18T01:37:39;107.80;;;17.70;;
22916;SDS011;11624;53.250;7.456;2023-11-18T01:40:08;112.63;;;17.77;;
22916;SDS011;11624;53.250;7.456;2023-11-18T01:42:41;72.80;;;17.07;;
22916;SDS011;11624;53.250;7.456;2023-11-18T01:45:10;127.83;;;22.17;;
22916;SDS011;11624;53.250;7.456;2023-11-18T01:47:40;113.43;;;17.57;;
22916;SDS011;11624;53.250;7.456;2023-11-18T01:50:10;115.37;;;17.17;;
22916;SDS011;11624;53.250;7.456;2023-11-18T01:52:41;65.27;;;16.17;;
22916;SDS011;11624;53.250;7.456;2023-11-18T01:55:12;82.30;;;16.57;;
22916;SDS011;11624;53.250;7.456;2023-11-18T01:57:47;77.77;;;15.70;;
22916;SDS011;11624;53.250;7.456;2023-11-18T02:00:17;83.03;;;19.27;;
22916;SDS011;11624;53.250;7.456;2023-11-18T02:02:47;82.47;;;19.57;;
22916;SDS011;11624;53.250;7.456;2023-11-18T02:05:16;121.67;;;22.10;;
22916;SDS011;11624;53.250;7.456;2023-11-18T02:07:45;54.80;;;15.57;;
22916;SDS011;11624;53.250;7.456;2023-11-18T02:10:14;71.63;;;16.67;;
22916;SDS011;11624;53.250;7.456;2023-11-18T02:12:44;58.57;;;16.73;;
22916;SDS011;11624;53.250;7.456;2023-11-18T02:15:22;55.80;;;14.37;;
22916;SDS011;11624;53.250;7.456;2023-11-18T02:17:54;114.00;;;16.70;;
22916;SDS011;11624;53.250;7.456;2023-11-18T02:20:25;121.90;;;20.33;;
22916;SDS011;11624;53.250;7.456;2023-11-18T02:22:55;93.83;;;17.53;;
22916;SDS011;11624;53.250;7.456;2023-11-18T02:25:24;50.87;;;18.33;;
22916;SDS011;11624;53.250;7.456;2023-11-18T02:27:57;44.17;;;15.57;;
22916;SDS011;11624;53.250;7.456;2023-11-18T02:30:25;98.67;;;19.57;;
22916;SDS011;11624;53.250;7.456;2023-11-18T02:32:58;47.87;;;16.50;;
22916;SDS011;11624;53.250;7.456;2023-11-18T02:35:33;63.30;;;18.00;;
22916;SDS011;11624;53.250;7.456;2023-11-18T02:38:10;71.80;;;16.63;;
22916;SDS011;11624;53.250;7.456;2023-11-18T02:40:39;43.70;;;14.53;;
22916;SDS011;11624;53.250;7.456;2023-11-18T02:43:12;52.07;;;16.37;;
22916;SDS011;11624;53.250;7.456;2023-11-18T02:45:41;53.33;;;15.60;;
22916;SDS011;11624;53.250;7.456;2023-11-18T02:48:10;54.43;;;16.13;;
22916;SDS011;11624;53.250;7.456;2023-11-18T02:50:39;62.47;;;16.37;;
22916;SDS011;11624;53.250;7.456;2023-11-18T02:53:08;77.57;;;17.27;;
22916;SDS011;11624;53.250;7.456;2023-11-18T02:55:37;81.43;;;15.93;;
22916;SDS011;11624;53.250;7.456;2023-11-18T02:58:24;65.17;;;15.30;;
22916;SDS011;11624;53.250;7.456;2023-11-18T03:00:53;69.63;;;16.87;;
22916;SDS011;11624;53.250;7.456;2023-11-18T03:03:21;82.77;;;15.60;;
22916;SDS011;11624;53.250;7.456;2023-11-18T03:05:49;62.50;;;15.60;;
22916;SDS011;11624;53.250;7.456;2023-11-18T03:08:18;95.70;;;17.20;;
22916;SDS011;11624;53.250;7.456;2023-11-18T03:10:46;53.53;;;15.27;;
22916;SDS011;11624;53.250;7.456;2023-11-18T03:13:19;75.93;;;17.40;;
22916;SDS011;11624;53.250;7.456;2023-11-18T03:15:49;72.83;;;18.27;;
22916;SDS011;11624;53.250;7.456;2023-11-18T03:18:19;91.03;;;18.70;;
22916;SDS011;11624;53.250;7.456;2023-11-18T03:20:47;65.33;;;16.47;;
22916;SDS011;11624;53.250;7.456;2023-11-18T03:23:16;89.77;;;16.90;;
22916;SDS011;11624;53.250;7.456;2023-11-18T03:25:44;51.23;;;15.53;;
22916;SDS011;11624;53.250;7.456;2023-11-18T03:28:13;49.07;;;14.93;;
22916;SDS011;11624;53.250;7.456;2023-11-18T03:30:41;56.90;;;15.53;;
22916;SDS011;11624;53.250;7.456;2023-11-18T03:33:11;72.87;;;16.37;;
22916;SDS011;11624;53.250;7.456;2023-11-18T03:35:40;60.40;;;16.40;;
22916;SDS011;11624;53.250;7.456;2023-11-18T03:38:08;48.43;;;14.93;;
22916;SDS011;11624;53.250;7.456;2023-11-18T03:40:37;48.70;;;14.90;;
22916;SDS011;11624;53.250;7.456;2023-11-18T03:43:05;77.37;;;16.30;;
22916;SDS011;11624;53.250;7.456;2023-11-18T03:45:34;58.03;;;14.67;;
22916;SDS011;11624;53.250;7.456;2023-11-18T03:48:02;45.87;;;14.47;;
22916;SDS011;11624;53.250;7.456;2023-11-18T03:50:32;73.00;;;15.17;;
22916;SDS011;11624;53.250;7.456;2023-11-18T03:53:00;58.90;;;16.53;;
22916;SDS011;11624;53.250;7.456;2023-11-18T03:55:30;67.97;;;16.17;;
22916;SDS011;11624;53.250;7.456;2023-11-18T03:57:58;49.67;;;14.10;;
22916;SDS011;11624;53.250;7.456;2023-11-18T04:00:27;61.63;;;15.17;;
22916;SDS011;11624;53.250;7.456;2023-11-18T04:02:56;48.80;;;14.10;;
22916;SDS011;11624;53.250;7.456;2023-11-18T04:05:25;56.97;;;15.90;;
22916;SDS011;11624;53.250;7.456;2023-11-18T04:07:55;69.30;;;14.33;;
22916;SDS011;11624;53.250;7.456;2023-11-18T04:10:23;66.93;;;15.73;;
22916;SDS011;11624;53.250;7.456;2023-11-18T04:12:51;47.77;;;15.27;;
22916;SDS011;11624;53.250;7.456;2023-11-18T04:15:20;65.97;;;14.40;;
22916;SDS011;11624;53.250;7.456;2023-11-18T04:17:48;73.43;;;15.63;;
22916;SDS011;11624;53.250;7.456;2023-11-18T04:20:17;60.73;;;15.33;;
22916;SDS011;11624;53.250;7.456;2023-11-18T04:22:45;52.63;;;14.90;;
22916;SDS011;11624;53.250;7.456;2023-11-18T04:25:15;45.20;;;14.27;;
22916;SDS011;11624;53.250;7.456;2023-11-18T04:27:44;71.10;;;15.87;;
22916;SDS011;11624;53.250;7.456;2023-11-18T04:30:13;72.87;;;15.37;;
22916;SDS011;11624;53.250;7.456;2023-11-18T04:32:41;71.47;;;14.97;;
22916;SDS011;11624;53.250;7.456;2023-11-18T04:35:10;39.87;;;13.20;;
22916;SDS011;11624;53.250;7.456;2023-11-18T04:37:39;79.13;;;15.00;;
22916;SDS011;11624;53.250;7.456;2023-11-18T04:40:10;107.00;;;17.90;;
22916;SDS011;11624;53.250;7.456;2023-11-18T04:42:41;113.40;;;17.37;;
22916;SDS011;11624;53.250;7.456;2023-11-18T04:45:11;99.83;;;17.70;;
22916;SDS011;11624;53.250;7.456;2023-11-18T04:47:41;95.73;;;19.33;;
22916;SDS011;11624;53.250;7.456;2023-11-18T04:50:11;94.07;;;18.23;;
22916;SDS011;11624;53.250;7.456;2023-11-18T04:52:40;128.87;;;19.47;;
22916;SDS011;11624;53.250;7.456;2023-11-18T04:55:09;79.97;;;17.60;;
22916;SDS011;11624;53.250;7.456;2023-11-18T04:57:41;89.40;;;17.13;;
22916;SDS011;11624;53.250;7.456;2023-11-18T05:00:10;111.87;;;20.67;;
22916;SDS011;11624;53.250;7.456;2023-11-18T05:02:43;82.50;;;18.00;;
22916;SDS011;11624;53.250;7.456;2023-11-18T05:05:14;73.30;;;17.37;;
22916;SDS011;11624;53.250;7.456;2023-11-18T05:07:43;81.40;;;17.53;;
22916;SDS011;11624;53.250;7.456;2023-11-18T05:10:12;56.97;;;15.57;;
22916;SDS011;11624;53.250;7.456;2023-11-18T05:12:41;74.83;;;17.67;;
22916;SDS011;11624;53.250;7.456;2023-11-18T05:15:11;61.00;;;17.33;;
22916;SDS011;11624;53.250;7.456;2023-11-18T05:17:39;71.03;;;16.63;;
22916;SDS011;11624;53.250;7.456;2023-11-18T05:20:08;85.60;;;17.33;;
22916;SDS011;11624;53.250;7.456;2023-11-18T05:22:38;81.97;;;17.23;;
22916;SDS011;11624;53.250;7.456;2023-11-18T05:25:06;84.43;;;16.80;;
22916;SDS011;11624;53.250;7.456;2023-11-18T05:27:36;110.23;;;17.43;;
22916;SDS011;11624;53.250;7.456;2023-11-18T05:30:08;69.57;;;16.10;;
22916;SDS011;11624;53.250;7.456;2023-11-18T05:32:38;62.87;;;14.90;;
22916;SDS011;11624;53.250;7.456;2023-11-18T05:35:07;72.47;;;17.33;;
22916;SDS011;11624;53.250;7.456;2023-11-18T05:37:38;73.67;;;15.77;;
22916;SDS011;11624;53.250;7.456;2023-11-18T05:40:08;55.57;;;15.37;;
22916;SDS011;11624;53.250;7.456;2023-11-18T05:42:42;56.90;;;15.60;;
22916;SDS011;11624;53.250;7.456;2023-11-18T05:45:14;57.33;;;14.93;;
22916;SDS011;11624;53.250;7.456;2023-11-18T05:47:54;63.30;;;15.77;;
22916;SDS011;11624;53.250;7.456;2023-11-18T05:50:23;78.97;;;17.23;;
22916;SDS011;11624;53.250;7.456;2023-11-18T05:52:53;61.67;;;15.83;;
22916;SDS011;11624;53.250;7.456;2023-11-18T05:55:22;62.23;;;15.20;;
22916;SDS011;11624;53.250;7.456;2023-11-18T05:57:50;61.77;;;16.27;;
22916;SDS011;11624;53.250;7.456;2023-11-18T06:00:20;63.47;;;15.57;;
22916;SDS011;11624;53.250;7.456;2023-11-18T06:03:01;52.50;;;15.00;;
22916;SDS011;11624;53.250;7.456;2023-11-18T06:05:30;46.67;;;15.87;;
22916;SDS011;11624;53.250;7.456;2023-11-18T06:08:01;41.00;;;15.53;;
22916;SDS011;11624;53.250;7.456;2023-11-18T06:10:31;45.60;;;15.70;;
22916;SDS011;11624;53.250;7.456;2023-11-18T06:13:00;42.97;;;15.97;;
22916;SDS011;11624;53.250;7.456;2023-11-18T06:15:32;42.80;;;15.57;;
22916;SDS011;11624;53.250;7.456;2023-11-18T06:18:02;44.23;;;15.70;;
22916;SDS011;11624;53.250;7.456;2023-11-18T06:20:33;42.37;;;16.97;;
22916;SDS011;11624;53.250;7.456;2023-11-18T06:23:02;43.47;;;15.83;;
22916;SDS011;11624;53.250;7.456;2023-11-18T06:25:31;53.70;;;16.30;;
22916;SDS011;11624;53.250;7.456;2023-11-18T06:28:01;54.10;;;17.10;;
22916;SDS011;11624;53.250;7.456;2023-11-18T06:30:31;44.60;;;15.73;;
22916;SDS011;11624;53.250;7.456;2023-11-18T06:33:00;45.17;;;15.50;;
22916;SDS011;11624;53.250;7.456;2023-11-18T06:35:29;51.10;;;16.43;;
22916;SDS011;11624;53.250;7.456;2023-11-18T06:38:00;44.60;;;17.10;;
22916;SDS011;11624;53.250;7.456;2023-11-18T06:40:29;49.90;;;16.27;;
22916;SDS011;11624;53.250;7.456;2023-11-18T06:42:57;48.30;;;16.53;;
22916;SDS011;11624;53.250;7.456;2023-11-18T06:45:29;45.40;;;16.37;;
22916;SDS011;11624;53.250;7.456;2023-11-18T06:48:00;47.77;;;16.60;;
22916;SDS011;11624;53.250;7.456;2023-11-18T06:50:28;59.63;;;18.27;;
22916;SDS011;11624;53.250;7.456;2023-11-18T06:52:58;47.47;;;17.07;;
22916;SDS011;11624;53.250;7.456;2023-11-18T06:55:26;63.57;;;19.17;;
22916;SDS011;11624;53.250;7.456;2023-11-18T06:57:55;46.43;;;18.17;;
22916;SDS011;11624;53.250;7.456;2023-11-18T07:00:23;48.20;;;18.33;;
22916;SDS011;11624;53.250;7.456;2023-11-18T07:02:55;49.97;;;18.07;;
22916;SDS011;11624;53.250;7.456;2023-11-18T07:05:25;55.60;;;18.73;;
22916;SDS011;11624;53.250;7.456;2023-11-18T07:07:54;57.03;;;19.37;;
22916;SDS011;11624;53.250;7.456;2023-11-18T07:10:22;59.80;;;20.23;;
22916;SDS011;11624;53.250;7.456;2023-11-18T07:12:52;54.17;;;19.20;;
22916;SDS011;11624;53.250;7.456;2023-11-18T07:15:20;56.13;;;19.53;;
22916;SDS011;11624;53.250;7.456;2023-11-18T07:17:48;47.60;;;17.83;;
22916;SDS011;11624;53.250;7.456;2023-11-18T07:20:22;55.53;;;20.10;;
22916;SDS011;11624;53.250;7.456;2023-11-18T07:22:51;55.40;;;19.77;;
22916;SDS011;11624;53.250;7.456;2023-11-18T07:25:20;52.83;;;19.20;;
22916;SDS011;11624;53.250;7.456;2023-11-18T07:27:49;53.87;;;20.53;;
22916;SDS011;11624;53.250;7.456;2023-11-18T07:30:18;58.70;;;21.23;;
22916;SDS011;11624;53.250;7.456;2023-11-18T07:32:46;57.70;;;20.40;;
22916;SDS011;11624;53.250;7.456;2023-11-18T07:35:16;62.37;;;21.23;;
22916;SDS011;11624;53.250;7.456;2023-11-18T07:37:44;61.87;;;21.90;;
22916;SDS011;11624;53.250;7.456;2023-11-18T07:40:14;55.73;;;20.77;;
22916;SDS011;11624;53.250;7.456;2023-11-18T07:42:48;59.07;;;20.47;;
22916;SDS011;11624;53.250;7.456;2023-11-18T07:45:17;58.70;;;21.23;;
22916;SDS011;11624;53.250;7.456;2023-11-18T07:47:45;55.40;;;21.27;;
22916;SDS011;11624;53.250;7.456;2023-11-18T07:50:15;49.77;;;20.43;;
22916;SDS011;11624;53.250;7.456;2023-11-18T07:52:46;52.90;;;20.50;;
22916;SDS011;11624;53.250;7.456;2023-11-18T07:55:17;55.57;;;20.70;;
22916;SDS011;11624;53.250;7.456;2023-11-18T07:57:45;55.50;;;20.17;;
22916;SDS011;11624;53.250;7.456;2023-11-18T08:00:13;58.50;;;21.50;;
22916;SDS011;11624;53.250;7.456;2023-11-18T08:02:42;56.80;;;20.60;;
22916;SDS011;11624;53.250;7.456;2023-11-18T08:05:12;52.37;;;20.33;;
22916;SDS011;11624;53.250;7.456;2023-11-18T08:07:42;50.17;;;20.67;;
22916;SDS011;11624;53.250;7.456;2023-11-18T08:10:12;52.07;;;20.83;;
22916;SDS011;11624;53.250;7.456;2023-11-18T08:12:47;50.90;;;20.87;;
22916;SDS011;11624;53.250;7.456;2023-11-18T08:15:15;56.57;;;21.27;;
22916;SDS011;11624;53.250;7.456;2023-11-18T08:17:45;55.43;;;20.93;;
22916;SDS011;11624;53.250;7.456;2023-11-18T08:20:13;53.00;;;20.77;;
22916;SDS011;11624;53.250;7.456;2023-11-18T08:22:42;58.07;;;20.57;;
22916;SDS011;11624;53.250;7.456;2023-11-18T08:25:12;55.13;;;20.53;;
22916;SDS011;11624;53.250;7.456;2023-11-18T08:27:42;49.73;;;19.80;;
22916;SDS011;11624;53.250;7.456;2023-11-18T08:30:14;48.47;;;20.93;;
22916;SDS011;11624;53.250;7.456;2023-11-18T08:32:45;45.63;;;19.53;;
22916;SDS011;11624;53.250;7.456;2023-11-18T08:35:14;53.53;;;19.87;;
22916;SDS011;11624;53.250;7.456;2023-11-18T08:37:43;56.87;;;19.90;;
22916;SDS011;11624;53.250;7.456;2023-11-18T08:40:12;51.67;;;21.80;;
22916;SDS011;11624;53.250;7.456;2023-11-18T08:42:43;45.87;;;20.17;;
22916;SDS011;11624;53.250;7.456;2023-11-18T08:45:16;49.77;;;20.70;;
22916;SDS011;11624;53.250;7.456;2023-11-18T08:47:49;56.97;;;20.27;;
22916;SDS011;11624;53.250;7.456;2023-11-18T08:50:20;50.57;;;21.77;;
22916;SDS011;11624;53.250;7.456;2023-11-18T08:52:51;55.57;;;21.63;;
22916;SDS011;11624;53.250;7.456;2023-11-18T08:55:26;54.30;;;20.60;;
22916;SDS011;11624;53.250;7.456;2023-11-18T08:58:09;53.40;;;20.90;;
22916;SDS011;11624;53.250;7.456;2023-11-18T09:00:49;50.53;;;20.80;;
22916;SDS011;11624;53.250;7.456;2023-11-18T09:03:22;57.50;;;20.77;;
22916;SDS011;11624;53.250;7.456;2023-11-18T09:05:56;49.10;;;20.07;;
22916;SDS011;11624;53.250;7.456;2023-11-18T09:08:26;50.90;;;20.23;;
22916;SDS011;11624;53.250;7.456;2023-11-18T09:10:59;53.07;;;21.07;;
22916;SDS011;11624;53.250;7.456;2023-11-18T09:13:27;51.10;;;20.37;;
22916;SDS011;11624;53.250;7.456;2023-11-18T09:15:58;51.20;;;20.07;;
22916;SDS011;11624;53.250;7.456;2023-11-18T09:18:27;52.93;;;21.77;;
22916;SDS011;11624;53.250;7.456;2023-11-18T09:20:57;49.40;;;20.40;;
22916;SDS011;11624;53.250;7.456;2023-11-18T09:23:28;52.80;;;21.20;;
22916;SDS011;11624;53.250;7.456;2023-11-18T09:25:58;51.03;;;21.30;;
22916;SDS011;11624;53.250;7.456;2023-11-18T09:28:27;46.80;;;19.73;;
22916;SDS011;11624;53.250;7.456;2023-11-18T09:30:57;56.30;;;22.27;;
22916;SDS011;11624;53.250;7.456;2023-11-18T09:33:28;55.57;;;20.30;;
22916;SDS011;11624;53.250;7.456;2023-11-18T09:35:59;52.60;;;21.07;;
22916;SDS011;11624;53.250;7.456;2023-11-18T09:38:29;55.97;;;21.93;;
22916;SDS011;11624;53.250;7.456;2023-11-18T09:40:58;52.90;;;20.97;;
22916;SDS011;11624;53.250;7.456;2023-11-18T09:43:29;53.40;;;20.60;;
22916;SDS011;11624;53.250;7.456;2023-11-18T09:46:03;55.80;;;20.57;;
22916;SDS011;11624;53.250;7.456;2023-11-18T09:48:43;57.80;;;22.07;;
22916;SDS011;11624;53.250;7.456;2023-11-18T09:51:19;54.63;;;21.47;;
22916;SDS011;11624;53.250;7.456;2023-11-18T09:53:49;49.47;;;20.57;;
22916;SDS011;11624;53.250;7.456;2023-11-18T09:56:25;49.80;;;19.17;;
22916;SDS011;11624;53.250;7.456;2023-11-18T09:59:07;55.23;;;20.93;;
22916;SDS011;11624;53.250;7.456;2023-11-18T10:01:44;50.03;;;20.00;;
22916;SDS011;11624;53.250;7.456;2023-11-18T10:04:20;47.70;;;20.07;;
22916;SDS011;11624;53.250;7.456;2023-11-18T10:06:49;50.20;;;19.57;;
22916;SDS011;11624;53.250;7.456;2023-11-18T10:09:20;46.50;;;20.60;;
22916;SDS011;11624;53.250;7.456;2023-11-18T10:11:55;51.37;;;19.83;;
22916;SDS011;11624;53.250;7.456;2023-11-18T10:14:32;51.30;;;20.20;;
22916;SDS011;11624;53.250;7.456;2023-11-18T10:17:04;47.30;;;20.77;;
22916;SDS011;11624;53.250;7.456;2023-11-18T10:19:49;49.87;;;20.87;;
22916;SDS011;11624;53.250;7.456;2023-11-18T10:22:21;51.03;;;21.17;;
22916;SDS011;11624;53.250;7.456;2023-11-18T10:24:52;44.77;;;20.10;;
22916;SDS011;11624;53.250;7.456;2023-11-18T10:27:22;44.13;;;19.53;;
22916;SDS011;11624;53.250;7.456;2023-11-18T10:29:56;46.27;;;19.73;;
22916;SDS011;11624;53.250;7.456;2023-11-18T10:32:26;48.00;;;18.97;;
22916;SDS011;11624;53.250;7.456;2023-11-18T10:34:55;49.53;;;19.20;;
22916;SDS011;11624;53.250;7.456;2023-11-18T10:37:25;47.47;;;19.73;;
22916;SDS011;11624;53.250;7.456;2023-11-18T10:40:03;50.33;;;19.70;;
22916;SDS011;11624;53.250;7.456;2023-11-18T10:42:32;42.23;;;18.90;;
22916;SDS011;11624;53.250;7.456;2023-11-18T10:45:01;41.60;;;19.83;;
22916;SDS011;11624;53.250;7.456;2023-11-18T10:47:33;49.50;;;19.10;;
22916;SDS011;11624;53.250;7.456;2023-11-18T10:50:02;43.90;;;17.80;;
22916;SDS011;11624;53.250;7.456;2023-11-18T10:52:31;47.03;;;18.80;;
22916;SDS011;11624;53.250;7.456;2023-11-18T10:55:08;43.10;;;18.93;;
22916;SDS011;11624;53.250;7.456;2023-11-18T10:57:39;47.90;;;19.10;;
22916;SDS011;11624;53.250;7.456;2023-11-18T11:00:10;44.93;;;17.67;;
22916;SDS011;11624;53.250;7.456;2023-11-18T11:02:43;44.57;;;18.93;;
22916;SDS011;11624;53.250;7.456;2023-11-18T11:05:16;43.53;;;18.23;;
22916;SDS011;11624;53.250;7.456;2023-11-18T11:07:59;43.00;;;18.13;;
22916;SDS011;11624;53.250;7.456;2023-11-18T11:10:32;40.20;;;17.50;;
22916;SDS011;11624;53.250;7.456;2023-11-18T11:13:02;50.83;;;18.13;;
22916;SDS011;11624;53.250;7.456;2023-11-18T11:15:36;46.93;;;17.60;;
22916;SDS011;11624;53.250;7.456;2023-11-18T11:18:24;44.33;;;17.80;;
22916;SDS011;11624;53.250;7.456;2023-11-18T11:21:03;42.93;;;17.53;;
22916;SDS011;11624;53.250;7.456;2023-11-18T11:23:40;41.87;;;18.30;;
22916;SDS011;11624;53.250;7.456;2023-11-18T11:26:23;47.53;;;18.87;;
22916;SDS011;11624;53.250;7.456;2023-11-18T11:29:14;37.53;;;15.77;;
22916;SDS011;11624;53.250;7.456;2023-11-18T11:31:55;41.90;;;16.53;;
22916;SDS011;11624;53.250;7.456;2023-11-18T11:34:40;42.60;;;18.57;;
22916;SDS011;11624;53.250;7.456;2023-11-18T11:37:20;42.77;;;17.83;;
22916;SDS011;11624;53.250;7.456;2023-11-18T11:39:53;37.57;;;17.13;;
22916;SDS011;11624;53.250;7.456;2023-11-18T11:42:25;39.60;;;17.40;;
22916;SDS011;11624;53.250;7.456;2023-11-18T11:44:55;40.10;;;17.07;;
22916;SDS011;11624;53.250;7.456;2023-11-18T11:47:25;43.53;;;18.83;;
22916;SDS011;11624;53.250;7.456;2023-11-18T11:49:59;41.07;;;17.37;;
22916;SDS011;11624;53.250;7.456;2023-11-18T11:52:37;40.93;;;17.07;;
22916;SDS011;11624;53.250;7.456;2023-11-18T11:55:15;37.53;;;17.87;;
22916;SDS011;11624;53.250;7.456;2023-11-18T11:57:51;42.63;;;17.80;;
22916;SDS011;11624;53.250;7.456;2023-11-18T12:00:20;38.10;;;16.73;;
22916;SDS011;11624;53.250;7.456;2023-11-18T12:02:52;42.30;;;17.27;;
22916;SDS011;11624;53.250;7.456;2023-11-18T12:05:24;44.83;;;17.13;;
22916;SDS011;11624;53.250;7.456;2023-11-18T12:07:54;36.40;;;16.17;;
22916;SDS011;11624;53.250;7.456;2023-11-18T12:10:26;44.00;;;18.27;;
22916;SDS011;11624;53.250;7.456;2023-11-18T12:13:07;39.93;;;18.30;;
22916;SDS011;11624;53.250;7.456;2023-11-18T12:15:47;38.37;;;16.63;;
22916;SDS011;11624;53.250;7.456;2023-11-18T12:18:21;36.73;;;15.87;;
22916;SDS011;11624;53.250;7.456;2023-11-18T12:20:52;44.33;;;17.57;;
22916;SDS011;11624;53.250;7.456;2023-11-18T12:23:24;40.97;;;17.05;;
22916;SDS011;11624;53.250;7.456;2023-11-18T12:25:53;41.90;;;16.60;;
22916;SDS011;11624;53.250;7.456;2023-11-18T12:28:27;37.70;;;15.37;;
22916;SDS011;11624;53.250;7.456;2023-11-18T12:30:57;36.03;;;15.90;;
22916;SDS011;11624;53.250;7.456;2023-11-18T12:34:00;40.03;;;16.23;;
22916;SDS011;11624;53.250;7.456;2023-11-18T12:40:00;38.07;;;16.23;;
22916;SDS011;11624;53.250;7.456;2023-11-18T12:42:59;40.37;;;16.43;;
22916;SDS011;11624;53.250;7.456;2023-11-18T12:45:42;44.17;;;16.97;;
22916;SDS011;11624;53.250;7.456;2023-11-18T12:48:14;40.67;;;16.20;;
22916;SDS011;11624;53.250;7.456;2023-11-18T12:50:43;37.20;;;16.90;;
22916;SDS011;11624;53.250;7.456;2023-11-18T12:53:14;38.27;;;16.23;;
22916;SDS011;11624;53.250;7.456;2023-11-18T12:55:45;37.13;;;15.73;;
22916;SDS011;11624;53.250;7.456;2023-11-18T12:58:16;32.03;;;15.17;;
22916;SDS011;11624;53.250;7.456;2023-11-18T13:00:45;37.60;;;16.30;;
22916;SDS011;11624;53.250;7.456;2023-11-18T13:03:13;36.03;;;15.07;;
22916;SDS011;11624;53.250;7.456;2023-11-18T13:05:44;38.00;;;15.27;;
22916;SDS011;11624;53.250;7.456;2023-11-18T13:08:14;35.88;;;15.65;;
22916;SDS011;11624;53.250;7.456;2023-11-18T13:10:43;42.67;;;16.77;;
22916;SDS011;11624;53.250;7.456;2023-11-18T13:13:11;40.07;;;15.27;;
22916;SDS011;11624;53.250;7.456;2023-11-18T13:15:44;37.33;;;16.30;;
22916;SDS011;11624;53.250;7.456;2023-11-18T13:18:12;33.80;;;15.80;;
22916;SDS011;11624;53.250;7.456;2023-11-18T13:20:41;35.50;;;16.25;;
22916;SDS011;11624;53.250;7.456;2023-11-18T13:23:22;38.25;;;14.57;;
22916;SDS011;11624;53.250;7.456;2023-11-18T13:25:54;37.80;;;16.33;;
22916;SDS011;11624;53.250;7.456;2023-11-18T13:28:23;38.63;;;17.60;;
22916;SDS011;11624;53.250;7.456;2023-11-18T13:30:52;33.77;;;15.20;;
22916;SDS011;11624;53.250;7.456;2023-11-18T13:33:21;40.63;;;15.17;;
22916;SDS011;11624;53.250;7.456;2023-11-18T13:35:50;37.37;;;15.73;;
22916;SDS011;11624;53.250;7.456;2023-11-18T13:38:19;35.47;;;15.60;;
22916;SDS011;11624;53.250;7.456;2023-11-18T13:40:49;36.67;;;16.10;;
22916;SDS011;11624;53.250;7.456;2023-11-18T13:43:19;33.35;;;15.77;;
22916;SDS011;11624;53.250;7.456;2023-11-18T13:45:52;40.63;;;16.00;;
22916;SDS011;11624;53.250;7.456;2023-11-18T13:48:23;37.70;;;15.67;;
22916;SDS011;11624;53.250;7.456;2023-11-18T13:50:51;35.87;;;15.30;;
22916;SDS011;11624;53.250;7.456;2023-11-18T13:53:20;34.40;;;15.00;;
22916;SDS011;11624;53.250;7.456;2023-11-18T13:55:50;36.85;;;15.68;;
22916;SDS011;11624;53.250;7.456;2023-11-18T13:58:19;37.53;;;15.88;;
22916;SDS011;11624;53.250;7.456;2023-11-18T14:00:47;37.97;;;14.73;;
22916;SDS011;11624;53.250;7.456;2023-11-18T14:03:18;35.77;;;14.93;;
22916;SDS011;11624;53.250;7.456;2023-11-18T14:05:50;34.50;;;16.17;;
22916;SDS011;11624;53.250;7.456;2023-11-18T14:08:19;36.40;;;15.70;;
22916;SDS011;11624;53.250;7.456;2023-11-18T14:10:47;37.67;;;15.90;;
22916;SDS011;11624;53.250;7.456;2023-11-18T14:13:30;39.33;;;15.75;;
22916;SDS011;11624;53.250;7.456;2023-11-18T14:16:01;37.20;;;15.45;;
22916;SDS011;11624;53.250;7.456;2023-11-18T14:18:30;33.25;;;14.77;;
22916;SDS011;11624;53.250;7.456;2023-11-18T14:20:58;36.75;;;15.13;;
22916;SDS011;11624;53.250;7.456;2023-11-18T14:23:27;37.17;;;15.63;;
22916;SDS011;11624;53.250;7.456;2023-11-18T14:25:56;35.17;;;15.73;;
22916;SDS011;11624;53.250;7.456;2023-11-18T14:28:24;35.57;;;14.80;;
22916;SDS011;11624;53.250;7.456;2023-11-18T14:30:55;37.58;;;16.83;;
22916;SDS011;11624;53.250;7.456;2023-11-18T14:33:24;29.50;;;13.93;;
22916;SDS011;11624;53.250;7.456;2023-11-18T14:35:52;36.43;;;15.27;;
22916;SDS011;11624;53.250;7.456;2023-11-18T14:38:22;35.92;;;15.23;;
22916;SDS011;11624;53.250;7.456;2023-11-18T14:40:51;31.50;;;14.70;;
22916;SDS011;11624;53.250;7.456;2023-11-18T14:43:20;37.80;;;16.13;;
22916;SDS011;11624;53.250;7.456;2023-11-18T14:45:48;33.60;;;14.85;;